»·PEaware :: N2102W KSNA-KCNO

N2102W :: KSNA-KCNO

FLIGHT INFORMATION

Flight Status: Arrived
Operator: Privately registered:
United States
More flights under this callsign
Pilot: Eric G. (5941)
Aircraft: Cessna 525C Citation CJ4
(C25C)
More flights by this aircraft type
Origin: KSNA John Wayne-Orange Co
United States
Destination: KCNO Chino
United States
More flights between these airports :: More routes between these airports
Route: SLI V8 PDZ
File this flight plan on PilotEdge
Remarks: NA
Altitude:
(Current/Filed)
9,000ft
Speed:
(Current/Filed)
250kts
Departed: 07-Sep-20 08:08 AM
Arrived: 07-Sep-20 08:36 AM
Distance/Time
Traveled:
21nm/0:28
Distance/Time
To Go:
Arrived

Flight Plot

Page will automatically refresh every two minutes.


Map Options




Map Legend


Flown Route
Filed Route
Departure Airport
Arrival Airport
Navaid (VOR, NDB)
Fix

Horizontal Profiles

Position Reports

Time Latitude Longitude Heading Altitude Ground
Speed
07-Sep-20 07:40 33.664792 -117.873467 160 56ft 0kts
07-Sep-20 07:41 33.664792 -117.873467 160 56ft 0kts
07-Sep-20 07:42 33.664792 -117.873467 160 56ft 0kts
07-Sep-20 07:43 33.664792 -117.873467 160 56ft 0kts
07-Sep-20 07:44 33.664792 -117.873467 160 56ft 0kts
07-Sep-20 07:45 33.664871 -117.873501 160 56ft 0kts
07-Sep-20 07:46 33.664915 -117.874246 306 56ft 0kts
07-Sep-20 07:47 33.664915 -117.874246 306 56ft 0kts
07-Sep-20 07:48 33.664915 -117.874246 306 56ft 0kts
07-Sep-20 07:49 33.664915 -117.874246 306 56ft 0kts
07-Sep-20 07:50 33.664915 -117.874246 306 56ft 0kts
07-Sep-20 07:51 33.664915 -117.874246 306 56ft 0kts
07-Sep-20 07:52 33.664915 -117.874246 306 56ft 0kts
07-Sep-20 07:53 33.664915 -117.874246 306 56ft 0kts
07-Sep-20 07:54 33.664915 -117.874246 306 56ft 0kts
07-Sep-20 07:55 33.664915 -117.874246 306 56ft 0kts
07-Sep-20 07:56 33.664915 -117.874246 306 56ft 0kts
07-Sep-20 07:57 33.664915 -117.874246 306 56ft 0kts
07-Sep-20 07:58 33.664915 -117.874246 306 56ft 0kts
07-Sep-20 07:59 33.664915 -117.874246 306 56ft 0kts
07-Sep-20 08:00 33.667033 -117.873243 32 61ft 16kts
07-Sep-20 08:01 33.670480 -117.869522 40 53ft 15kts
07-Sep-20 08:02 33.671440 -117.868555 38 53ft 14kts
07-Sep-20 08:03 33.674426 -117.866253 26 53ft 14kts
07-Sep-20 08:04 33.678042 -117.863927 28 45ft 14kts
07-Sep-20 08:05 33.680675 -117.863099 301 42ft 0kts
07-Sep-20 08:06 33.680675 -117.863099 301 42ft 0kts
07-Sep-20 08:07 33.680995 -117.865530 208 42ft 42kts
07-Sep-20 08:08 33.629319 -117.893643 193 2391ft 277kts
07-Sep-20 08:09 33.565096 -117.904302 187 4333ft 225kts
07-Sep-20 08:10 33.501106 -117.916353 214 4998ft 252kts
07-Sep-20 08:11 33.485442 -117.997745 311 5023ft 270kts
07-Sep-20 08:12 33.541873 -118.045974 342 5018ft 243kts
07-Sep-20 08:13 33.617090 -118.053441 2 5965ft 278kts
07-Sep-20 08:14 33.688668 -118.048146 3 6018ft 267kts
07-Sep-20 08:15 33.762823 -118.048427 356 6024ft 275kts
07-Sep-20 08:16 33.807348 -117.987144 80 6034ft 278kts
07-Sep-20 08:17 33.822011 -117.896835 68 6033ft 279kts
07-Sep-20 08:18 33.851086 -117.811086 69 6036ft 280kts
07-Sep-20 08:19 33.875185 -117.723734 72 6041ft 280kts
07-Sep-20 08:20 33.890770 -117.664890 72 6046ft 280kts
07-Sep-20 08:21 33.909613 -117.593420 72 6051ft 278kts
07-Sep-20 08:22 33.925730 -117.519129 83 6055ft 275kts
07-Sep-20 08:23 33.924473 -117.430614 93 6062ft 273kts
07-Sep-20 08:24 33.921402 -117.355488 93 6067ft 273kts
07-Sep-20 08:25 33.917970 -117.264471 92 6072ft 272kts
07-Sep-20 08:26 33.936381 -117.195247 8 6102ft 250kts
07-Sep-20 08:27 33.976655 -117.242024 274 6086ft 202kts
07-Sep-20 08:28 33.978293 -117.315875 269 4571ft 221kts
07-Sep-20 08:29 33.978903 -117.388380 270 4414ft 191kts
07-Sep-20 08:30 33.978915 -117.446841 269 3463ft 169kts
07-Sep-20 08:31 33.978284 -117.505760 267 2949ft 181kts
07-Sep-20 08:32 33.976769 -117.558726 269 1899ft 141kts
07-Sep-20 08:33 33.976311 -117.601017 268 1315ft 122kts
07-Sep-20 08:34 33.975771 -117.637221 267 631ft 84kts
07-Sep-20 08:35 33.976661 -117.644110 18 620ft 7kts
07-Sep-20 08:36 33.976887 -117.641682 84 623ft 5kts
07-Sep-20 08:37 33.977507 -117.640566 82 625ft 2kts
07-Sep-20 08:38 33.977323 -117.640421 179 625ft 0kts
07-Sep-20 08:39 33.977323 -117.640421 179 625ft 0kts
07-Sep-20 08:40 33.977323 -117.640421 179 625ft 0kts
07-Sep-20 08:41 33.977323 -117.640421 179 625ft 0kts
07-Sep-20 08:42 33.977323 -117.640421 179 625ft 0kts
07-Sep-20 08:43 33.977323 -117.640421 179 625ft 0kts
07-Sep-20 08:44 33.977323 -117.640421 179 625ft 0kts
07-Sep-20 08:45 33.977323 -117.640421 179 625ft 0kts
07-Sep-20 08:46 33.977323 -117.640421 179 625ft 0kts
07-Sep-20 08:47 33.977323 -117.640421 179 625ft 0kts
07-Sep-20 08:48 33.977323 -117.640421 179 625ft 0kts
07-Sep-20 08:49 33.977323 -117.640421 179 625ft 0kts

Navigation Log

Ident Type
Flight plan parsing failed, navigation log unavailable